sensor_id;sensor_type;location;lat;lon;timestamp;pressure;altitude;pressure_sealevel;temperature;humidity
52719;BME280;38616;42.140;24.760;2023-06-14T00:01:44;99199.47;;;22.17;64.77
52719;BME280;38616;42.140;24.760;2023-06-14T00:04:11;99196.78;;;22.21;64.46
52719;BME280;38616;42.140;24.760;2023-06-14T00:06:36;99196.53;;;22.06;65.11
52719;BME280;38616;42.140;24.760;2023-06-14T00:09:02;99196.91;;;22.05;64.63
52719;BME280;38616;42.140;24.760;2023-06-14T00:11:27;99195.75;;;22.06;64.89
52719;BME280;38616;42.140;24.760;2023-06-14T00:13:53;99195.38;;;21.64;66.18
52719;BME280;38616;42.140;24.760;2023-06-14T00:16:18;99192.22;;;21.66;66.55
52719;BME280;38616;42.140;24.760;2023-06-14T00:18:45;99184.69;;;21.63;67.00
52719;BME280;38616;42.140;24.760;2023-06-14T00:21:11;99184.44;;;21.32;67.86
52719;BME280;38616;42.140;24.760;2023-06-14T00:23:37;99188.66;;;21.26;68.40
52719;BME280;38616;42.140;24.760;2023-06-14T00:26:03;99192.00;;;21.35;68.62
52719;BME280;38616;42.140;24.760;2023-06-14T00:28:28;99187.56;;;21.70;67.19
52719;BME280;38616;42.140;24.760;2023-06-14T00:30:54;99191.94;;;21.71;66.87
52719;BME280;38616;42.140;24.760;2023-06-14T00:33:19;99184.59;;;21.59;67.51
52719;BME280;38616;42.140;24.760;2023-06-14T00:35:45;99188.72;;;21.69;66.94
52719;BME280;38616;42.140;24.760;2023-06-14T00:38:10;99187.72;;;21.77;66.75
52719;BME280;38616;42.140;24.760;2023-06-14T00:40:35;99184.88;;;21.74;66.97
52719;BME280;38616;42.140;24.760;2023-06-14T00:43:01;99186.75;;;21.50;67.94
52719;BME280;38616;42.140;24.760;2023-06-14T00:45:26;99180.31;;;21.42;68.44
52719;BME280;38616;42.140;24.760;2023-06-14T00:47:52;99177.97;;;21.24;69.44
52719;BME280;38616;42.140;24.760;2023-06-14T00:50:20;99173.31;;;21.09;70.11
52719;BME280;38616;42.140;24.760;2023-06-14T00:52:47;99170.69;;;20.96;71.07
52719;BME280;38616;42.140;24.760;2023-06-14T00:55:12;99173.00;;;20.94;71.59
52719;BME280;38616;42.140;24.760;2023-06-14T00:57:38;99168.88;;;21.24;70.57
52719;BME280;38616;42.140;24.760;2023-06-14T01:00:05;99169.16;;;20.99;71.90
52719;BME280;38616;42.140;24.760;2023-06-14T01:02:36;99170.16;;;20.91;72.15
52719;BME280;38616;42.140;24.760;2023-06-14T01:05:01;99171.44;;;20.77;73.08
52719;BME280;38616;42.140;24.760;2023-06-14T01:10:47;99171.34;;;20.74;72.40
52719;BME280;38616;42.140;24.760;2023-06-14T01:13:32;99175.84;;;20.14;74.87
52719;BME280;38616;42.140;24.760;2023-06-14T01:15:58;99167.31;;;20.19;75.10
52719;BME280;38616;42.140;24.760;2023-06-14T01:18:24;99168.63;;;20.42;74.89
52719;BME280;38616;42.140;24.760;2023-06-14T01:20:51;99167.53;;;20.62;73.83
52719;BME280;38616;42.140;24.760;2023-06-14T01:23:19;99171.81;;;20.60;74.03
52719;BME280;38616;42.140;24.760;2023-06-14T01:25:45;99169.97;;;20.48;73.95
52719;BME280;38616;42.140;24.760;2023-06-14T01:28:16;99174.03;;;20.38;74.82
52719;BME280;38616;42.140;24.760;2023-06-14T01:30:44;99172.44;;;20.37;74.82
52719;BME280;38616;42.140;24.760;2023-06-14T01:33:14;99160.59;;;20.69;73.69
52719;BME280;38616;42.140;24.760;2023-06-14T01:35:46;99161.50;;;20.92;72.65
52719;BME280;38616;42.140;24.760;2023-06-14T01:38:13;99172.78;;;21.23;71.33
52719;BME280;38616;42.140;24.760;2023-06-14T01:40:39;99153.91;;;21.45;70.10
52719;BME280;38616;42.140;24.760;2023-06-14T01:43:06;99162.84;;;21.38;69.76
52719;BME280;38616;42.140;24.760;2023-06-14T01:45:33;99161.13;;;21.30;70.43
52719;BME280;38616;42.140;24.760;2023-06-14T01:47:59;99159.88;;;21.27;70.24
52719;BME280;38616;42.140;24.760;2023-06-14T01:50:31;99157.47;;;21.06;70.86
52719;BME280;38616;42.140;24.760;2023-06-14T01:52:57;99161.66;;;21.00;71.50
52719;BME280;38616;42.140;24.760;2023-06-14T01:55:23;99164.16;;;21.05;71.41
52719;BME280;38616;42.140;24.760;2023-06-14T01:57:50;99164.22;;;21.28;70.24
52719;BME280;38616;42.140;24.760;2023-06-14T02:00:16;99158.69;;;21.48;69.50
52719;BME280;38616;42.140;24.760;2023-06-14T02:02:43;99171.94;;;21.38;69.43
52719;BME280;38616;42.140;24.760;2023-06-14T02:05:09;99170.94;;;21.07;70.44
52719;BME280;38616;42.140;24.760;2023-06-14T02:07:36;99163.44;;;21.28;70.47
52719;BME280;38616;42.140;24.760;2023-06-14T02:10:02;99169.16;;;21.38;69.75
52719;BME280;38616;42.140;24.760;2023-06-14T02:12:28;99168.09;;;21.43;69.42
52719;BME280;38616;42.140;24.760;2023-06-14T02:14:53;99167.44;;;21.50;69.17
52719;BME280;38616;42.140;24.760;2023-06-14T02:17:19;99164.03;;;21.37;69.51
52719;BME280;38616;42.140;24.760;2023-06-14T02:19:45;99169.25;;;21.42;69.51
52719;BME280;38616;42.140;24.760;2023-06-14T02:22:11;99161.13;;;21.49;69.12
52719;BME280;38616;42.140;24.760;2023-06-14T02:24:36;99160.81;;;21.54;68.61
52719;BME280;38616;42.140;24.760;2023-06-14T02:27:02;99159.28;;;21.57;68.32
52719;BME280;38616;42.140;24.760;2023-06-14T02:29:28;99159.88;;;21.47;68.68
52719;BME280;38616;42.140;24.760;2023-06-14T02:31:54;99171.22;;;21.41;69.08
52719;BME280;38616;42.140;24.760;2023-06-14T02:34:19;99161.59;;;21.35;68.76
52719;BME280;38616;42.140;24.760;2023-06-14T02:36:47;99176.97;;;21.33;68.81
52719;BME280;38616;42.140;24.760;2023-06-14T02:39:13;99173.56;;;21.20;68.83
52719;BME280;38616;42.140;24.760;2023-06-14T02:41:38;99177.16;;;21.04;69.52
52719;BME280;38616;42.140;24.760;2023-06-14T02:44:04;99176.88;;;21.29;68.92
52719;BME280;38616;42.140;24.760;2023-06-14T02:46:29;99181.75;;;21.16;69.38
52719;BME280;38616;42.140;24.760;2023-06-14T02:48:55;99172.97;;;21.10;69.25
52719;BME280;38616;42.140;24.760;2023-06-14T02:51:20;99174.28;;;21.17;69.22
52719;BME280;38616;42.140;24.760;2023-06-14T02:53:46;99178.94;;;21.13;68.99
52719;BME280;38616;42.140;24.760;2023-06-14T02:56:11;99185.16;;;20.74;70.30
52719;BME280;38616;42.140;24.760;2023-06-14T02:58:37;99189.34;;;20.84;70.19
52719;BME280;38616;42.140;24.760;2023-06-14T03:01:04;99180.78;;;20.89;69.79
52719;BME280;38616;42.140;24.760;2023-06-14T03:03:30;99193.59;;;20.65;70.07
52719;BME280;38616;42.140;24.760;2023-06-14T03:05:56;99189.50;;;20.91;70.00
52719;BME280;38616;42.140;24.760;2023-06-14T03:08:22;99198.00;;;21.02;69.03
52719;BME280;38616;42.140;24.760;2023-06-14T03:10:52;99197.88;;;20.78;70.12
52719;BME280;38616;42.140;24.760;2023-06-14T03:13:18;99194.97;;;20.55;70.56
52719;BME280;38616;42.140;24.760;2023-06-14T03:15:46;99207.94;;;20.71;69.90
52719;BME280;38616;42.140;24.760;2023-06-14T03:18:12;99206.00;;;20.23;71.17
52719;BME280;38616;42.140;24.760;2023-06-14T03:20:40;99210.19;;;20.49;71.31
52719;BME280;38616;42.140;24.760;2023-06-14T03:23:08;99217.38;;;20.37;71.21
52719;BME280;38616;42.140;24.760;2023-06-14T03:25:34;99210.09;;;20.29;71.33
52719;BME280;38616;42.140;24.760;2023-06-14T03:28:04;99208.16;;;20.30;71.18
52719;BME280;38616;42.140;24.760;2023-06-14T03:30:30;99209.19;;;20.25;71.04
52719;BME280;38616;42.140;24.760;2023-06-14T03:32:57;99215.16;;;20.43;70.79
52719;BME280;38616;42.140;24.760;2023-06-14T03:35:23;99209.44;;;20.36;70.61
52719;BME280;38616;42.140;24.760;2023-06-14T03:37:48;99222.00;;;20.49;70.45
52719;BME280;38616;42.140;24.760;2023-06-14T03:40:16;99228.94;;;20.43;70.37
52719;BME280;38616;42.140;24.760;2023-06-14T03:42:42;99226.97;;;20.76;69.81
52719;BME280;38616;42.140;24.760;2023-06-14T03:45:07;99224.50;;;20.71;69.51
52719;BME280;38616;42.140;24.760;2023-06-14T03:47:33;99230.47;;;20.73;68.78
52719;BME280;38616;42.140;24.760;2023-06-14T03:49:59;99244.34;;;20.60;69.59
52719;BME280;38616;42.140;24.760;2023-06-14T03:52:27;99237.31;;;20.63;69.46
52719;BME280;38616;42.140;24.760;2023-06-14T03:54:53;99248.78;;;20.65;69.43
52719;BME280;38616;42.140;24.760;2023-06-14T03:57:19;99252.16;;;20.42;70.14
52719;BME280;38616;42.140;24.760;2023-06-14T03:59:45;99254.03;;;20.70;69.28
52719;BME280;38616;42.140;24.760;2023-06-14T04:02:10;99249.00;;;20.56;69.70
52719;BME280;38616;42.140;24.760;2023-06-14T04:04:37;99243.72;;;20.67;69.60
52719;BME280;38616;42.140;24.760;2023-06-14T04:07:03;99248.78;;;20.81;68.97
52719;BME280;38616;42.140;24.760;2023-06-14T04:09:29;99249.13;;;20.95;68.47
52719;BME280;38616;42.140;24.760;2023-06-14T04:11:55;99252.53;;;20.73;68.80
52719;BME280;38616;42.140;24.760;2023-06-14T04:14:21;99249.94;;;20.64;68.06
52719;BME280;38616;42.140;24.760;2023-06-14T04:16:48;99259.22;;;20.88;67.77
52719;BME280;38616;42.140;24.760;2023-06-14T04:19:14;99253.81;;;21.11;66.50
52719;BME280;38616;42.140;24.760;2023-06-14T04:21:39;99263.94;;;20.71;67.26
52719;BME280;38616;42.140;24.760;2023-06-14T04:24:07;99250.22;;;20.59;67.23
52719;BME280;38616;42.140;24.760;2023-06-14T04:26:38;99254.50;;;20.72;67.25
52719;BME280;38616;42.140;24.760;2023-06-14T04:29:04;99257.44;;;20.79;66.75
52719;BME280;38616;42.140;24.760;2023-06-14T04:31:31;99254.06;;;21.22;65.53
52719;BME280;38616;42.140;24.760;2023-06-14T04:33:59;99251.81;;;21.28;65.37
52719;BME280;38616;42.140;24.760;2023-06-14T04:36:24;99257.69;;;21.26;65.41
52719;BME280;38616;42.140;24.760;2023-06-14T04:38:50;99256.09;;;21.25;65.38
52719;BME280;38616;42.140;24.760;2023-06-14T04:41:20;99254.47;;;21.40;65.02
52719;BME280;38616;42.140;24.760;2023-06-14T04:43:48;99258.09;;;21.44;64.41
52719;BME280;38616;42.140;24.760;2023-06-14T04:46:14;99263.09;;;21.19;65.13
52719;BME280;38616;42.140;24.760;2023-06-14T04:48:40;99256.63;;;20.95;65.95
52719;BME280;38616;42.140;24.760;2023-06-14T04:51:08;99270.22;;;21.20;66.02
52719;BME280;38616;42.140;24.760;2023-06-14T04:53:35;99266.69;;;21.59;65.03
52719;BME280;38616;42.140;24.760;2023-06-14T04:56:00;99269.56;;;21.62;64.90
52719;BME280;38616;42.140;24.760;2023-06-14T04:58:28;99267.22;;;22.04;64.24
52719;BME280;38616;42.140;24.760;2023-06-14T05:00:54;99271.44;;;21.97;64.02
52719;BME280;38616;42.140;24.760;2023-06-14T05:03:21;99269.72;;;21.69;65.29
52719;BME280;38616;42.140;24.760;2023-06-14T05:05:47;99271.94;;;21.83;65.58
52719;BME280;38616;42.140;24.760;2023-06-14T05:08:13;99273.44;;;21.61;66.02
52719;BME280;38616;42.140;24.760;2023-06-14T05:10:39;99278.78;;;21.70;65.85
52719;BME280;38616;42.140;24.760;2023-06-14T05:13:04;99286.28;;;21.69;66.33
52719;BME280;38616;42.140;24.760;2023-06-14T05:15:30;99273.53;;;21.65;66.06
52719;BME280;38616;42.140;24.760;2023-06-14T05:17:55;99275.09;;;21.82;65.90
52719;BME280;38616;42.140;24.760;2023-06-14T05:20:24;99280.75;;;21.89;65.65
52719;BME280;38616;42.140;24.760;2023-06-14T05:22:52;99286.19;;;22.05;65.13
52719;BME280;38616;42.140;24.760;2023-06-14T05:25:19;99290.44;;;21.99;65.29
52719;BME280;38616;42.140;24.760;2023-06-14T05:27:45;99290.13;;;22.04;65.14
52719;BME280;38616;42.140;24.760;2023-06-14T05:30:11;99292.59;;;21.90;65.42
52719;BME280;38616;42.140;24.760;2023-06-14T05:32:39;99300.25;;;21.77;66.06
52719;BME280;38616;42.140;24.760;2023-06-14T05:35:08;99301.81;;;21.58;66.51
52719;BME280;38616;42.140;24.760;2023-06-14T05:37:54;99301.91;;;21.81;66.15
52719;BME280;38616;42.140;24.760;2023-06-14T05:40:20;99298.28;;;21.77;66.59
52719;BME280;38616;42.140;24.760;2023-06-14T05:42:46;99295.91;;;21.76;66.41
52719;BME280;38616;42.140;24.760;2023-06-14T05:45:11;99306.34;;;21.66;66.30
52719;BME280;38616;42.140;24.760;2023-06-14T05:47:36;99305.94;;;21.84;65.94
52719;BME280;38616;42.140;24.760;2023-06-14T05:50:02;99313.13;;;21.89;66.09
52719;BME280;38616;42.140;24.760;2023-06-14T05:52:28;99314.22;;;22.04;65.28
52719;BME280;38616;42.140;24.760;2023-06-14T05:54:56;99311.41;;;22.23;65.11
52719;BME280;38616;42.140;24.760;2023-06-14T05:57:22;99322.41;;;22.39;64.29
52719;BME280;38616;42.140;24.760;2023-06-14T05:59:47;99319.50;;;22.32;64.53
52719;BME280;38616;42.140;24.760;2023-06-14T06:02:12;99311.94;;;22.29;64.98
52719;BME280;38616;42.140;24.760;2023-06-14T06:04:38;99322.19;;;22.28;65.14
52719;BME280;38616;42.140;24.760;2023-06-14T06:07:03;99321.47;;;22.32;64.81
52719;BME280;38616;42.140;24.760;2023-06-14T06:09:30;99320.28;;;22.33;64.60
52719;BME280;38616;42.140;24.760;2023-06-14T06:11:56;99315.09;;;22.08;65.04
52719;BME280;38616;42.140;24.760;2023-06-14T06:14:21;99311.75;;;21.79;66.13
52719;BME280;38616;42.140;24.760;2023-06-14T06:16:47;99315.59;;;22.13;65.48
52719;BME280;38616;42.140;24.760;2023-06-14T06:19:12;99312.44;;;22.35;63.70
52719;BME280;38616;42.140;24.760;2023-06-14T06:21:37;99310.97;;;22.41;63.56
52719;BME280;38616;42.140;24.760;2023-06-14T06:24:04;99321.09;;;22.33;64.37
52719;BME280;38616;42.140;24.760;2023-06-14T06:26:31;99312.38;;;22.31;64.46
52719;BME280;38616;42.140;24.760;2023-06-14T06:28:57;99323.34;;;22.27;64.04
52719;BME280;38616;42.140;24.760;2023-06-14T06:31:22;99325.34;;;22.07;65.37
52719;BME280;38616;42.140;24.760;2023-06-14T06:33:50;99324.63;;;21.91;65.71
52719;BME280;38616;42.140;24.760;2023-06-14T06:36:16;99318.22;;;22.06;64.95
52719;BME280;38616;42.140;24.760;2023-06-14T06:38:44;99312.91;;;22.60;63.86
52719;BME280;38616;42.140;24.760;2023-06-14T06:41:09;99320.53;;;22.90;62.52
52719;BME280;38616;42.140;24.760;2023-06-14T06:43:35;99326.94;;;22.28;62.64
52719;BME280;38616;42.140;24.760;2023-06-14T06:46:00;99340.00;;;22.08;63.04
52719;BME280;38616;42.140;24.760;2023-06-14T06:48:25;99326.94;;;22.08;63.02
52719;BME280;38616;42.140;24.760;2023-06-14T06:50:51;99328.59;;;22.33;61.97
52719;BME280;38616;42.140;24.760;2023-06-14T06:53:17;99323.75;;;22.46;61.63
52719;BME280;38616;42.140;24.760;2023-06-14T06:55:44;99334.00;;;22.45;62.18
52719;BME280;38616;42.140;24.760;2023-06-14T06:58:09;99329.16;;;22.42;62.65
52719;BME280;38616;42.140;24.760;2023-06-14T07:00:35;99332.34;;;22.21;62.98
52719;BME280;38616;42.140;24.760;2023-06-14T07:03:00;99330.50;;;22.09;63.49
52719;BME280;38616;42.140;24.760;2023-06-14T07:05:26;99330.50;;;22.48;63.19
52719;BME280;38616;42.140;24.760;2023-06-14T07:07:52;99333.09;;;22.41;62.38
52719;BME280;38616;42.140;24.760;2023-06-14T07:10:17;99324.03;;;22.64;62.13
52719;BME280;38616;42.140;24.760;2023-06-14T07:12:43;99335.56;;;22.66;61.60
52719;BME280;38616;42.140;24.760;2023-06-14T07:15:09;99329.09;;;22.38;63.01
52719;BME280;38616;42.140;24.760;2023-06-14T07:17:35;99328.16;;;22.50;62.72
52719;BME280;38616;42.140;24.760;2023-06-14T07:20:02;99330.69;;;22.82;62.31
52719;BME280;38616;42.140;24.760;2023-06-14T07:22:33;99324.88;;;22.91;62.18
52719;BME280;38616;42.140;24.760;2023-06-14T07:24:58;99327.06;;;23.05;62.04
52719;BME280;38616;42.140;24.760;2023-06-14T07:27:24;99321.44;;;22.75;62.80
52719;BME280;38616;42.140;24.760;2023-06-14T07:29:49;99325.91;;;22.79;62.44
52719;BME280;38616;42.140;24.760;2023-06-14T07:32:14;99320.66;;;22.74;62.97
52719;BME280;38616;42.140;24.760;2023-06-14T07:34:40;99311.75;;;22.84;61.67
52719;BME280;38616;42.140;24.760;2023-06-14T07:37:05;99324.47;;;22.89;62.06
52719;BME280;38616;42.140;24.760;2023-06-14T07:39:31;99314.28;;;22.97;62.39
52719;BME280;38616;42.140;24.760;2023-06-14T07:41:56;99313.88;;;22.95;62.47
52719;BME280;38616;42.140;24.760;2023-06-14T07:44:22;99322.88;;;22.88;63.05
52719;BME280;38616;42.140;24.760;2023-06-14T07:46:47;99321.53;;;23.28;61.52
52719;BME280;38616;42.140;24.760;2023-06-14T07:49:14;99315.97;;;23.01;61.18
52719;BME280;38616;42.140;24.760;2023-06-14T07:51:40;99325.28;;;23.40;60.53
52719;BME280;38616;42.140;24.760;2023-06-14T07:54:05;99321.47;;;23.52;59.99
52719;BME280;38616;42.140;24.760;2023-06-14T07:56:32;99321.38;;;23.44;59.60
52719;BME280;38616;42.140;24.760;2023-06-14T07:59:00;99317.31;;;23.38;59.44
52719;BME280;38616;42.140;24.760;2023-06-14T08:01:26;99324.75;;;23.07;59.98
52719;BME280;38616;42.140;24.760;2023-06-14T08:03:52;99326.19;;;22.97;59.82
52719;BME280;38616;42.140;24.760;2023-06-14T08:06:18;99319.97;;;23.31;59.25
52719;BME280;38616;42.140;24.760;2023-06-14T08:08:43;99335.00;;;23.57;58.36
52719;BME280;38616;42.140;24.760;2023-06-14T08:11:09;99326.69;;;23.57;57.96
52719;BME280;38616;42.140;24.760;2023-06-14T08:13:34;99333.72;;;23.81;57.50
52719;BME280;38616;42.140;24.760;2023-06-14T08:16:00;99332.09;;;22.96;58.23
52719;BME280;38616;42.140;24.760;2023-06-14T08:18:26;99332.97;;;23.27;58.08
52719;BME280;38616;42.140;24.760;2023-06-14T08:20:51;99344.25;;;23.68;57.31
52719;BME280;38616;42.140;24.760;2023-06-14T08:23:17;99339.78;;;23.90;57.02
52719;BME280;38616;42.140;24.760;2023-06-14T08:25:44;99335.31;;;24.13;56.17
52719;BME280;38616;42.140;24.760;2023-06-14T08:28:10;99343.19;;;24.45;55.70
52719;BME280;38616;42.140;24.760;2023-06-14T08:30:35;99344.09;;;24.56;55.23
52719;BME280;38616;42.140;24.760;2023-06-14T08:33:01;99341.84;;;24.69;54.72
52719;BME280;38616;42.140;24.760;2023-06-14T08:35:26;99348.09;;;25.00;54.40
52719;BME280;38616;42.140;24.760;2023-06-14T08:37:53;99346.63;;;25.14;52.93
52719;BME280;38616;42.140;24.760;2023-06-14T08:40:21;99349.41;;;25.14;52.41
52719;BME280;38616;42.140;24.760;2023-06-14T08:42:56;99347.78;;;25.13;52.76
52719;BME280;38616;42.140;24.760;2023-06-14T08:45:21;99347.03;;;25.19;52.04
52719;BME280;38616;42.140;24.760;2023-06-14T08:47:50;99354.13;;;25.10;52.23
52719;BME280;38616;42.140;24.760;2023-06-14T08:50:23;99351.94;;;24.88;53.28
52719;BME280;38616;42.140;24.760;2023-06-14T08:52:56;99356.56;;;25.22;52.69
52719;BME280;38616;42.140;24.760;2023-06-14T08:55:23;99350.69;;;24.78;52.57
52719;BME280;38616;42.140;24.760;2023-06-14T08:57:53;99348.34;;;24.43;53.09
52719;BME280;38616;42.140;24.760;2023-06-14T09:00:19;99345.47;;;24.73;52.71
52719;BME280;38616;42.140;24.760;2023-06-14T09:02:46;99344.50;;;25.00;53.09
52719;BME280;38616;42.140;24.760;2023-06-14T09:05:15;99339.84;;;25.11;52.85
52719;BME280;38616;42.140;24.760;2023-06-14T09:07:43;99352.69;;;25.34;52.35
52719;BME280;38616;42.140;24.760;2023-06-14T09:10:14;99345.31;;;25.04;51.60
52719;BME280;38616;42.140;24.760;2023-06-14T09:12:40;99350.88;;;25.04;52.04
52719;BME280;38616;42.140;24.760;2023-06-14T09:15:06;99343.41;;;24.67;52.59
52719;BME280;38616;42.140;24.760;2023-06-14T09:17:40;99337.03;;;24.62;52.38
52719;BME280;38616;42.140;24.760;2023-06-14T09:20:07;99330.00;;;24.72;52.37
52719;BME280;38616;42.140;24.760;2023-06-14T09:22:37;99341.47;;;24.71;52.85
52719;BME280;38616;42.140;24.760;2023-06-14T09:25:03;99327.06;;;25.03;51.80
52719;BME280;38616;42.140;24.760;2023-06-14T09:27:29;99324.75;;;25.12;50.88
52719;BME280;38616;42.140;24.760;2023-06-14T09:29:55;99327.56;;;25.16;51.18
52719;BME280;38616;42.140;24.760;2023-06-14T09:32:24;99325.88;;;25.00;51.43
52719;BME280;38616;42.140;24.760;2023-06-14T09:34:50;99325.34;;;24.87;51.71
52719;BME280;38616;42.140;24.760;2023-06-14T09:37:29;99312.41;;;25.06;51.61
52719;BME280;38616;42.140;24.760;2023-06-14T09:39:56;99325.47;;;25.02;51.19
52719;BME280;38616;42.140;24.760;2023-06-14T09:42:21;99319.25;;;25.19;51.19
52719;BME280;38616;42.140;24.760;2023-06-14T09:44:51;99316.59;;;25.41;50.76
52719;BME280;38616;42.140;24.760;2023-06-14T09:47:18;99322.69;;;25.65;50.02
52719;BME280;38616;42.140;24.760;2023-06-14T09:49:44;99314.75;;;25.67;49.60
52719;BME280;38616;42.140;24.760;2023-06-14T09:52:20;99315.78;;;25.37;50.01
52719;BME280;38616;42.140;24.760;2023-06-14T09:54:47;99328.91;;;25.44;50.25
52719;BME280;38616;42.140;24.760;2023-06-14T09:57:14;99317.94;;;25.69;50.57
52719;BME280;38616;42.140;24.760;2023-06-14T09:59:43;99315.09;;;25.47;51.29
52719;BME280;38616;42.140;24.760;2023-06-14T10:02:34;99310.28;;;24.88;52.02
52719;BME280;38616;42.140;24.760;2023-06-14T10:05:08;99313.59;;;25.05;51.48
52719;BME280;38616;42.140;24.760;2023-06-14T10:07:42;99306.53;;;25.18;51.58
52719;BME280;38616;42.140;24.760;2023-06-14T10:10:09;99314.31;;;25.50;52.07
52719;BME280;38616;42.140;24.760;2023-06-14T10:12:36;99304.44;;;25.71;51.81
52719;BME280;38616;42.140;24.760;2023-06-14T10:15:02;99305.72;;;25.92;51.07
52719;BME280;38616;42.140;24.760;2023-06-14T10:18:01;99308.94;;;26.01;51.68
52719;BME280;38616;42.140;24.760;2023-06-14T10:20:49;99307.31;;;25.86;53.02
52719;BME280;38616;42.140;24.760;2023-06-14T10:23:18;99304.53;;;25.93;53.10
52719;BME280;38616;42.140;24.760;2023-06-14T10:25:44;99306.19;;;26.12;52.52
52719;BME280;38616;42.140;24.760;2023-06-14T10:28:20;99293.16;;;26.27;52.34
52719;BME280;38616;42.140;24.760;2023-06-14T10:31:11;99300.72;;;26.48;51.97
52719;BME280;38616;42.140;24.760;2023-06-14T10:33:55;99286.00;;;26.69;51.36
52719;BME280;38616;42.140;24.760;2023-06-14T10:36:44;99288.78;;;26.40;50.23
52719;BME280;38616;42.140;24.760;2023-06-14T10:39:17;99290.78;;;26.73;50.42
52719;BME280;38616;42.140;24.760;2023-06-14T10:41:51;99291.97;;;26.53;49.57
52719;BME280;38616;42.140;24.760;2023-06-14T10:44:30;99289.19;;;26.57;50.15
52719;BME280;38616;42.140;24.760;2023-06-14T10:46:58;99289.97;;;26.54;49.99
52719;BME280;38616;42.140;24.760;2023-06-14T10:49:39;99282.44;;;26.54;49.93
52719;BME280;38616;42.140;24.760;2023-06-14T10:52:15;99287.63;;;26.49;50.17
52719;BME280;38616;42.140;24.760;2023-06-14T11:00:10;99277.66;;;26.66;49.66
52719;BME280;38616;42.140;24.760;2023-06-14T11:05:30;99268.13;;;26.85;48.69
52719;BME280;38616;42.140;24.760;2023-06-14T11:10:43;99272.09;;;26.73;48.09
52719;BME280;38616;42.140;24.760;2023-06-14T11:13:10;99264.53;;;26.77;47.54
52719;BME280;38616;42.140;24.760;2023-06-14T11:15:37;99268.91;;;26.96;46.99
52719;BME280;38616;42.140;24.760;2023-06-14T11:18:05;99277.25;;;27.00;46.38
52719;BME280;38616;42.140;24.760;2023-06-14T11:20:33;99261.34;;;26.79;46.50
52719;BME280;38616;42.140;24.760;2023-06-14T11:22:59;99263.72;;;26.80;47.64
52719;BME280;38616;42.140;24.760;2023-06-14T11:25:24;99259.34;;;26.76;49.22
52719;BME280;38616;42.140;24.760;2023-06-14T11:27:50;99260.94;;;26.80;48.63
52719;BME280;38616;42.140;24.760;2023-06-14T11:30:19;99258.16;;;26.77;48.76
52719;BME280;38616;42.140;24.760;2023-06-14T11:32:51;99251.81;;;26.87;48.87
52719;BME280;38616;42.140;24.760;2023-06-14T11:35:19;99251.81;;;26.87;48.00
52719;BME280;38616;42.140;24.760;2023-06-14T11:37:44;99248.63;;;26.92;48.18
52719;BME280;38616;42.140;24.760;2023-06-14T11:40:11;99248.25;;;26.87;48.00
52719;BME280;38616;42.140;24.760;2023-06-14T11:42:37;99249.81;;;26.84;48.17
52719;BME280;38616;42.140;24.760;2023-06-14T11:45:06;99249.41;;;26.89;48.00
52719;BME280;38616;42.140;24.760;2023-06-14T11:47:33;99241.06;;;26.93;48.03
52719;BME280;38616;42.140;24.760;2023-06-14T11:49:59;99237.06;;;26.61;47.33
52719;BME280;38616;42.140;24.760;2023-06-14T11:52:25;99234.69;;;26.74;47.97
52719;BME280;38616;42.140;24.760;2023-06-14T11:54:51;99235.06;;;26.65;48.59
52719;BME280;38616;42.140;24.760;2023-06-14T11:57:18;99227.94;;;26.82;47.96
52719;BME280;38616;42.140;24.760;2023-06-14T11:59:44;99228.31;;;26.70;47.44
52719;BME280;38616;42.140;24.760;2023-06-14T12:02:14;99221.13;;;26.94;47.72
52719;BME280;38616;42.140;24.760;2023-06-14T12:04:43;99231.44;;;27.08;47.19
52719;BME280;38616;42.140;24.760;2023-06-14T12:07:13;99231.50;;;26.94;46.97
52719;BME280;38616;42.140;24.760;2023-06-14T12:12:17;99226.28;;;26.96;47.80
52719;BME280;38616;42.140;24.760;2023-06-14T12:14:42;99229.09;;;26.78;48.26
52719;BME280;38616;42.140;24.760;2023-06-14T12:17:08;99218.72;;;27.00;48.18
52719;BME280;38616;42.140;24.760;2023-06-14T12:19:41;99211.94;;;27.19;48.45
52719;BME280;38616;42.140;24.760;2023-06-14T12:22:09;99215.50;;;27.23;47.99
52719;BME280;38616;42.140;24.760;2023-06-14T12:24:35;99213.13;;;27.18;47.57
52719;BME280;38616;42.140;24.760;2023-06-14T12:27:00;99206.31;;;27.23;46.50
52719;BME280;38616;42.140;24.760;2023-06-14T12:29:28;99201.63;;;26.98;47.19
52719;BME280;38616;42.140;24.760;2023-06-14T12:31:54;99204.41;;;25.96;48.84
52719;BME280;38616;42.140;24.760;2023-06-14T12:34:22;99203.19;;;26.01;49.44
52719;BME280;38616;42.140;24.760;2023-06-14T12:36:48;99206.03;;;26.26;49.25
52719;BME280;38616;42.140;24.760;2023-06-14T12:39:13;99192.13;;;26.34;49.40
52719;BME280;38616;42.140;24.760;2023-06-14T12:41:39;99188.97;;;26.43;48.01
52719;BME280;38616;42.140;24.760;2023-06-14T12:44:07;99193.28;;;26.65;48.10
52719;BME280;38616;42.140;24.760;2023-06-14T12:46:33;99178.59;;;26.58;48.50
52719;BME280;38616;42.140;24.760;2023-06-14T12:49:00;99180.97;;;26.59;48.70
52719;BME280;38616;42.140;24.760;2023-06-14T12:51:25;99181.34;;;26.61;48.08
52719;BME280;38616;42.140;24.760;2023-06-14T12:53:51;99172.59;;;26.88;48.38
52719;BME280;38616;42.140;24.760;2023-06-14T12:56:17;99167.34;;;27.12;46.92
52719;BME280;38616;42.140;24.760;2023-06-14T12:58:42;99168.91;;;27.20;46.64
52719;BME280;38616;42.140;24.760;2023-06-14T13:01:08;99170.84;;;27.38;45.83
52719;BME280;38616;42.140;24.760;2023-06-14T13:03:33;99164.81;;;27.50;44.98
52719;BME280;38616;42.140;24.760;2023-06-14T13:06:00;99167.16;;;27.55;44.26
52719;BME280;38616;42.140;24.760;2023-06-14T13:08:26;99162.44;;;27.49;44.20